Time;durP1;ratioP1;P1;durP2;ratioP2;P2;SDS_P1;SDS_P2;PMS_P1;PMS_P2;Temp;Humidity;BMP_temperature;BMP_pressure;BME280_temperature;BME280_humidity;BME280_pressure;Samples;Min_cycle;Max_cycle;Signal;HPM_P1;HPM_P2
2022/12/17 15:30:23;;;;;;;55.45;21.67;;;-0.70;99.90;;;;;;5068122;28;20316;-60
2022/12/17 15:32:49;;;;;;;59.65;22.80;;;-0.70;99.90;;;;;;5045575;28;20112;-59
2022/12/17 15:35:14;;;;;;;56.40;21.23;;;-0.70;99.90;;;;;;5046654;28;20029;-60
2022/12/17 15:37:40;;;;;;;60.17;24.52;;;-0.60;99.90;;;;;;5048218;28;20025;-60
2022/12/17 15:40:06;;;;;;;54.95;22.38;;;-0.50;99.90;;;;;;5027669;28;20029;-61
2022/12/17 15:45:16;;;;;;;54.50;22.92;;;-0.40;99.90;;;;;;5018946;28;20088;-61
2022/12/17 15:47:42;;;;;;;77.82;29.17;;;-0.30;99.90;;;;;;5025244;28;20022;-65
2022/12/17 15:50:08;;;;;;;66.10;26.83;;;-0.30;99.90;;;;;;5034584;28;20038;-61
2022/12/17 15:52:34;;;;;;;59.15;25.52;;;-0.30;99.90;;;;;;5025720;28;20057;-65
2022/12/17 15:55:00;;;;;;;62.67;25.73;;;-0.20;99.90;;;;;;5027282;28;20136;-65
2022/12/17 15:57:25;;;;;;;61.17;24.30;;;-0.20;99.90;;;;;;5026367;28;20110;-67
2022/12/17 15:59:51;;;;;;;62.22;24.55;;;-0.20;99.90;;;;;;5033890;28;20022;-63
2022/12/17 16:02:17;;;;;;;58.58;24.10;;;-0.10;99.90;;;;;;5026783;28;20080;-65
2022/12/17 16:04:42;;;;;;;63.42;27.30;;;-0.20;99.90;;;;;;5026217;28;20116;-66
2022/12/17 16:07:08;;;;;;;64.35;26.20;;;-0.30;99.90;;;;;;5024273;28;20029;-65
2022/12/17 16:09:33;;;;;;;61.15;25.25;;;-0.20;99.90;;;;;;5028737;28;20109;-65
2022/12/17 16:11:59;;;;;;;56.53;24.88;;;-0.20;99.90;;;;;;5026815;28;20475;-65
2022/12/17 16:14:25;;;;;;;62.92;24.08;;;-0.20;99.90;;;;;;5027102;28;20025;-63
2022/12/17 16:16:50;;;;;;;63.00;25.70;;;-0.20;99.90;;;;;;5027569;28;20029;-64
2022/12/17 16:19:20;;;;;;;66.65;27.27;;;-0.20;99.90;;;;;;5026559;28;20029;-67
2022/12/17 16:21:46;;;;;;;54.42;23.88;;;-0.20;99.90;;;;;;5045979;28;20531;-68
2022/12/17 16:24:12;;;;;;;54.67;24.85;;;-0.20;99.90;;;;;;5041158;28;20112;-66
2022/12/17 16:26:37;;;;;;;59.03;25.10;;;-0.20;99.90;;;;;;5020779;28;20406;-67
2022/12/17 16:29:03;;;;;;;61.33;27.15;;;-0.20;99.90;;;;;;5018604;28;20397;-68
2022/12/17 16:31:29;;;;;;;60.38;26.92;;;-0.20;99.90;;;;;;5042853;28;20938;-67
2022/12/17 16:33:54;;;;;;;57.10;24.88;;;-0.30;99.90;;;;;;5043871;28;20053;-68
2022/12/17 16:36:21;;;;;;;59.40;25.20;;;-0.30;99.90;;;;;;5042670;28;20469;-66
2022/12/17 16:38:50;;;;;;;60.47;25.63;;;-0.30;99.90;;;;;;5044456;28;20013;-63
2022/12/17 16:41:17;;;;;;;54.05;24.75;;;-0.30;99.90;;;;;;5055151;28;20021;-66
2022/12/17 16:43:43;;;;;;;57.00;24.42;;;-0.30;99.90;;;;;;5027781;28;20373;-68
2022/12/17 16:46:34;;;;;;;56.03;22.30;;;-0.30;99.90;;;;;;5032276;28;20021;-67
2022/12/17 16:49:12;;;;;;;68.35;25.70;;;-0.30;99.90;;;;;;5015141;28;20461;-66
2022/12/17 16:51:38;;;;;;;53.63;23.08;;;-0.30;99.90;;;;;;5015083;28;20048;-67
2022/12/17 16:54:13;;;;;;;60.83;24.27;;;-0.40;99.90;;;;;;5031835;28;20026;-69
2022/12/17 16:56:40;;;;;;;49.97;22.50;;;-0.40;99.90;;;;;;5013715;28;20120;-69
2022/12/17 16:59:08;;;;;;;57.05;23.02;;;-0.40;99.90;;;;;;5032196;28;20481;-67
2022/12/17 17:01:34;;;;;;;53.58;20.77;;;-0.40;99.90;;;;;;5030597;28;20032;-69
2022/12/17 17:04:00;;;;;;;54.65;22.35;;;-0.40;99.90;;;;;;5049727;28;20152;-69
2022/12/17 17:06:26;;;;;;;49.97;22.50;;;-0.40;99.90;;;;;;5052146;28;20491;-67
2022/12/17 17:08:51;;;;;;;54.22;22.58;;;-0.40;99.90;;;;;;5046938;28;20036;-66
2022/12/17 17:11:20;;;;;;;57.53;25.13;;;-0.50;99.90;;;;;;5050158;28;20489;-67
2022/12/17 17:13:51;;;;;;;47.88;20.65;;;-0.50;99.90;;;;;;5052391;28;20894;-64
2022/12/17 17:16:18;;;;;;;51.63;21.38;;;-0.50;99.90;;;;;;5033222;28;20490;-67
2022/12/17 17:18:43;;;;;;;59.70;22.23;;;-0.50;99.90;;;;;;5052435;28;20059;-67
2022/12/17 17:21:17;;;;;;;51.42;23.05;;;-0.50;99.90;;;;;;5048963;28;20098;-67
2022/12/17 17:23:47;;;;;;;57.25;22.83;;;-0.50;99.90;;;;;;5052613;28;20112;-66
2022/12/17 17:26:13;;;;;;;55.35;21.77;;;-0.50;99.90;;;;;;5052448;28;20423;-62
2022/12/17 17:28:39;;;;;;;56.67;21.63;;;-0.50;99.90;;;;;;5049523;28;20041;-61
2022/12/17 17:31:09;;;;;;;57.13;25.77;;;-0.50;99.90;;;;;;5051762;28;20383;-66
2022/12/17 17:33:37;;;;;;;57.70;23.60;;;-0.50;99.90;;;;;;5051632;28;20025;-62
2022/12/17 17:36:11;;;;;;;52.25;22.17;;;-0.60;99.90;;;;;;5050521;28;20020;-61
2022/12/17 17:38:39;;;;;;;51.63;22.33;;;-0.60;99.90;;;;;;5027144;28;20535;-62
2022/12/17 17:41:08;;;;;;;52.72;20.48;;;-0.60;99.90;;;;;;5032483;28;20029;-62
2022/12/17 17:43:33;;;;;;;48.22;21.45;;;-0.60;99.90;;;;;;5028961;28;20026;-62
2022/12/17 17:46:09;;;;;;;53.03;22.45;;;-0.60;99.90;;;;;;5032502;28;20037;-62
2022/12/17 17:48:35;;;;;;;59.28;23.75;;;-0.60;99.90;;;;;;5031357;28;20033;-62
2022/12/17 17:51:07;;;;;;;57.67;24.13;;;-0.70;99.90;;;;;;5032952;28;20040;-62
2022/12/17 17:53:34;;;;;;;54.13;23.10;;;-0.70;99.90;;;;;;5048211;28;20537;-61
2022/12/17 17:56:05;;;;;;;52.22;22.13;;;-0.70;99.90;;;;;;5039660;28;20021;-61
2022/12/17 17:58:31;;;;;;;55.05;24.02;;;-0.70;99.90;;;;;;5042714;28;20025;-63
2022/12/17 18:00:56;;;;;;;58.20;23.05;;;-0.70;99.90;;;;;;5051852;28;20021;-62
2022/12/17 18:03:22;;;;;;;61.40;23.38;;;-0.70;99.90;;;;;;5050916;28;20374;-63
2022/12/17 18:05:48;;;;;;;51.88;21.27;;;-0.70;99.90;;;;;;5033047;28;20025;-61
2022/12/17 18:08:13;;;;;;;53.33;22.55;;;-0.70;99.90;;;;;;5030679;28;20021;-62
2022/12/17 18:10:39;;;;;;;53.58;21.50;;;-0.70;99.90;;;;;;5044195;28;20120;-62
2022/12/17 18:15:48;;;;;;;50.38;20.42;;;-0.70;99.90;;;;;;5037132;28;20040;-62
2022/12/17 18:18:14;;;;;;;47.10;21.67;;;-0.80;99.90;;;;;;5052223;28;20017;-62
2022/12/17 18:20:40;;;;;;;50.95;22.08;;;-0.80;99.90;;;;;;5049402;28;20104;-63
2022/12/17 18:23:05;;;;;;;49.78;21.52;;;-0.80;99.90;;;;;;5022012;28;20116;-62
2022/12/17 18:25:33;;;;;;;63.75;24.20;;;-0.80;99.90;;;;;;5031412;28;20481;-63
2022/12/17 18:27:59;;;;;;;58.42;22.92;;;-0.80;99.90;;;;;;5032046;28;20021;-62
2022/12/17 18:30:24;;;;;;;58.33;23.08;;;-0.80;99.90;;;;;;5031791;28;20025;-61
2022/12/17 18:32:50;;;;;;;52.47;22.45;;;-0.80;99.90;;;;;;5037148;28;20045;-61
2022/12/17 18:35:16;;;;;;;53.65;23.13;;;-0.80;99.90;;;;;;5041615;28;20385;-61
2022/12/17 18:37:41;;;;;;;54.42;22.45;;;-0.70;99.90;;;;;;5051917;28;20457;-60
2022/12/17 18:40:07;;;;;;;61.50;29.65;;;-0.70;99.90;;;;;;5051005;28;20025;-62
2022/12/17 18:45:17;;;;;;;60.10;23.02;;;-0.70;99.90;;;;;;5031951;28;20075;-62
2022/12/17 18:47:44;;;;;;;65.05;24.45;;;-0.70;99.90;;;;;;5031871;28;20049;-62
2022/12/17 18:50:11;;;;;;;60.47;22.80;;;-0.70;99.90;;;;;;5029966;28;20533;-61
2022/12/17 18:52:37;;;;;;;60.85;24.58;;;-0.70;99.90;;;;;;5029706;28;20049;-61
2022/12/17 18:55:03;;;;;;;63.38;23.83;;;-0.70;99.90;;;;;;5031843;28;20091;-62
2022/12/17 18:57:28;;;;;;;66.07;23.92;;;-0.70;99.90;;;;;;5031394;28;20030;-61
2022/12/17 18:59:54;;;;;;;49.92;20.48;;;-0.70;99.90;;;;;;5028947;28;20026;-61
2022/12/17 19:02:19;;;;;;;56.25;22.02;;;-0.80;99.90;;;;;;5027056;28;20029;-61
2022/12/17 19:04:45;;;;;;;54.78;19.92;;;-0.80;99.90;;;;;;5031022;28;20022;-62
2022/12/17 19:07:10;;;;;;;58.78;20.48;;;-0.80;99.90;;;;;;5031330;28;20152;-63
2022/12/17 19:09:38;;;;;;;53.72;21.15;;;-0.80;99.90;;;;;;5029705;28;20041;-61
2022/12/17 19:12:06;;;;;;;53.65;21.88;;;-0.80;99.90;;;;;;5031662;28;20030;-62
2022/12/17 19:14:32;;;;;;;51.42;19.67;;;-0.80;99.90;;;;;;5044768;28;20036;-61
2022/12/17 19:16:58;;;;;;;57.90;22.45;;;-0.80;99.90;;;;;;5050181;28;20025;-63
2022/12/17 19:19:24;;;;;;;59.00;21.92;;;-0.80;99.90;;;;;;5051055;28;20436;-62
2022/12/17 19:21:53;;;;;;;53.42;21.33;;;-0.90;99.90;;;;;;5051162;28;20029;-61
2022/12/17 19:24:20;;;;;;;51.97;20.48;;;-0.90;99.90;;;;;;5048316;28;20103;-62
2022/12/17 19:26:46;;;;;;;59.42;21.20;;;-0.90;99.90;;;;;;5051269;28;20477;-63
2022/12/17 19:29:13;;;;;;;47.95;20.75;;;-1.00;99.90;;;;;;5050364;28;20041;-63
2022/12/17 19:31:39;;;;;;;54.47;20.17;;;-1.10;99.90;;;;;;5050812;28;20094;-63
2022/12/17 19:34:08;;;;;;;53.22;19.85;;;-1.10;99.90;;;;;;5048302;28;20025;-63
2022/12/17 19:36:35;;;;;;;58.75;22.17;;;-1.20;99.90;;;;;;5042066;28;20037;-61
2022/12/17 19:39:03;;;;;;;58.50;24.40;;;-1.20;99.90;;;;;;5047857;28;20033;-62
2022/12/17 19:41:30;;;;;;;69.45;25.48;;;-1.20;99.90;;;;;;5047272;28;20024;-63
2022/12/17 19:43:59;;;;;;;71.85;25.92;;;-1.20;99.90;;;;;;5051139;28;20025;-63
2022/12/17 19:46:25;;;;;;;60.78;23.70;;;-1.20;99.90;;;;;;5038771;28;20486;-62
2022/12/17 19:48:51;;;;;;;61.10;23.98;;;-1.20;99.90;;;;;;5030250;28;20068;-62
2022/12/17 19:51:19;;;;;;;63.35;25.00;;;-1.20;99.90;;;;;;5030976;28;20491;-62
2022/12/17 19:53:46;;;;;;;71.40;25.25;;;-1.20;99.90;;;;;;5031159;28;20465;-62
2022/12/17 19:56:14;;;;;;;69.65;24.08;;;-1.10;99.90;;;;;;5029502;28;20032;-62
2022/12/17 19:58:40;;;;;;;66.05;23.73;;;-1.10;99.90;;;;;;5030967;28;20071;-62
2022/12/17 20:01:09;;;;;;;66.10;25.52;;;-1.10;99.90;;;;;;5042171;28;20029;-61
2022/12/17 20:03:36;;;;;;;57.78;22.15;;;-1.10;99.90;;;;;;5046442;28;20024;-61
2022/12/17 20:06:03;;;;;;;58.72;21.05;;;-1.10;99.90;;;;;;5029354;28;20493;-61
2022/12/17 20:08:29;;;;;;;56.45;20.83;;;-1.20;99.90;;;;;;5030332;28;20030;-61
2022/12/17 20:10:55;;;;;;;56.75;21.55;;;-1.10;99.90;;;;;;5028381;28;20034;-60
2022/12/17 20:13:20;;;;;;;66.30;23.55;;;-1.20;99.90;;;;;;5050275;28;20382;-61
2022/12/17 20:15:46;;;;;;;59.88;24.35;;;-1.20;99.90;;;;;;5034619;28;20025;-61
2022/12/17 20:18:11;;;;;;;54.30;21.63;;;-1.20;99.90;;;;;;5053784;28;20021;-61
2022/12/17 20:20:37;;;;;;;62.53;21.85;;;-1.10;99.90;;;;;;5037605;28;20044;-60
2022/12/17 20:23:03;;;;;;;61.55;21.70;;;-1.20;99.90;;;;;;5034272;28;20026;-61
2022/12/17 20:25:28;;;;;;;62.28;22.55;;;-1.10;99.90;;;;;;5043662;28;20539;-61
2022/12/17 20:27:54;;;;;;;55.70;22.20;;;-1.20;99.90;;;;;;5054041;28;20029;-61
2022/12/17 20:30:23;;;;;;;56.53;21.48;;;-1.20;99.90;;;;;;5053066;28;20106;-61
2022/12/17 20:32:52;;;;;;;63.40;20.67;;;-1.20;99.90;;;;;;5052957;28;20021;-61
2022/12/17 20:35:19;;;;;;;51.33;22.27;;;-1.20;99.90;;;;;;5030442;28;20417;-60
2022/12/17 20:37:44;;;;;;;60.78;23.17;;;-1.30;99.90;;;;;;5041178;28;20061;-61
2022/12/17 20:40:10;;;;;;;62.75;21.30;;;-1.30;99.90;;;;;;5036354;28;20458;-62
2022/12/17 20:42:36;;;;;;;53.17;20.77;;;-1.30;99.90;;;;;;5033867;28;20101;-61
2022/12/17 20:45:01;;;;;;;48.05;19.75;;;-1.40;99.90;;;;;;5033414;28;20384;-61
2022/12/17 20:47:27;;;;;;;49.53;19.00;;;-1.40;99.90;;;;;;5032700;28;20025;-61
2022/12/17 20:49:53;;;;;;;54.80;18.83;;;-1.40;99.90;;;;;;5050075;28;20052;-61
2022/12/17 20:52:18;;;;;;;56.55;20.55;;;-1.40;99.90;;;;;;5050398;28;20473;-61
2022/12/17 20:54:44;;;;;;;48.55;19.75;;;-1.50;99.90;;;;;;5053898;28;20029;-61
2022/12/17 20:57:10;;;;;;;55.00;19.40;;;-1.60;99.90;;;;;;5053731;28;20025;-61
2022/12/17 20:59:35;;;;;;;53.90;20.95;;;-1.60;99.90;;;;;;5052745;28;20024;-61
2022/12/17 21:02:01;;;;;;;57.88;21.40;;;-1.70;99.90;;;;;;5022084;28;20018;-61
2022/12/17 21:04:26;;;;;;;54.40;21.05;;;-1.70;99.90;;;;;;5033436;28;20052;-61
2022/12/17 21:06:52;;;;;;;67.97;23.75;;;-1.70;99.90;;;;;;5032809;28;20017;-61
2022/12/17 21:09:19;;;;;;;58.97;22.58;;;-1.70;99.90;;;;;;5033342;28;20105;-60
2022/12/17 21:11:45;;;;;;;60.92;21.65;;;-1.70;99.90;;;;;;5033883;28;20025;-61
2022/12/17 21:14:14;;;;;;;59.45;22.25;;;-1.70;99.90;;;;;;5049412;28;20037;-61
2022/12/17 21:16:41;;;;;;;67.90;24.58;;;-1.70;99.90;;;;;;5033235;28;20034;-61
2022/12/17 21:19:12;;;;;;;67.70;25.08;;;-1.70;99.90;;;;;;5040094;28;20053;-62
2022/12/17 21:21:38;;;;;;;52.47;21.90;;;-1.70;99.90;;;;;;5050007;28;20017;-61
2022/12/17 21:24:05;;;;;;;63.95;23.15;;;-1.70;99.90;;;;;;5033056;28;20032;-60
